sensor_id;sensor_type;location;lat;lon;timestamp;P1;durP1;ratioP1;P2;durP2;ratioP2
74898;SDS011;63458;48.210;16.338;2023-05-14T00:01:44;16.52;;;11.90;;
74898;SDS011;63458;48.210;16.338;2023-05-14T00:04:10;16.40;;;11.48;;
74898;SDS011;63458;48.210;16.338;2023-05-14T00:06:36;15.85;;;11.25;;
74898;SDS011;63458;48.210;16.338;2023-05-14T00:09:02;17.63;;;11.80;;
74898;SDS011;63458;48.210;16.338;2023-05-14T00:11:28;15.95;;;11.68;;
74898;SDS011;63458;48.210;16.338;2023-05-14T00:13:54;15.45;;;11.13;;
74898;SDS011;63458;48.210;16.338;2023-05-14T00:16:20;14.95;;;10.80;;
74898;SDS011;63458;48.210;16.338;2023-05-14T00:18:46;16.70;;;11.80;;
74898;SDS011;63458;48.210;16.338;2023-05-14T00:21:12;16.15;;;10.57;;
74898;SDS011;63458;48.210;16.338;2023-05-14T00:23:38;14.02;;;9.98;;
74898;SDS011;63458;48.210;16.338;2023-05-14T00:26:04;15.77;;;11.90;;
74898;SDS011;63458;48.210;16.338;2023-05-14T00:28:30;14.52;;;11.07;;
74898;SDS011;63458;48.210;16.338;2023-05-14T00:30:56;19.52;;;12.95;;
74898;SDS011;63458;48.210;16.338;2023-05-14T00:33:22;15.30;;;11.02;;
74898;SDS011;63458;48.210;16.338;2023-05-14T00:35:48;18.13;;;12.80;;
74898;SDS011;63458;48.210;16.338;2023-05-14T00:38:15;15.35;;;10.90;;
74898;SDS011;63458;48.210;16.338;2023-05-14T00:43:13;15.40;;;11.50;;
74898;SDS011;63458;48.210;16.338;2023-05-14T00:45:40;17.40;;;12.35;;
74898;SDS011;63458;48.210;16.338;2023-05-14T00:48:06;15.27;;;11.38;;
74898;SDS011;63458;48.210;16.338;2023-05-14T00:50:32;15.13;;;11.63;;
74898;SDS011;63458;48.210;16.338;2023-05-14T00:52:58;16.70;;;12.65;;
74898;SDS011;63458;48.210;16.338;2023-05-14T00:55:25;16.38;;;11.57;;
74898;SDS011;63458;48.210;16.338;2023-05-14T00:57:51;15.45;;;12.05;;
74898;SDS011;63458;48.210;16.338;2023-05-14T01:00:18;17.17;;;12.07;;
74898;SDS011;63458;48.210;16.338;2023-05-14T01:02:44;16.83;;;12.98;;
74898;SDS011;63458;48.210;16.338;2023-05-14T01:05:10;15.73;;;10.98;;
74898;SDS011;63458;48.210;16.338;2023-05-14T01:08:01;15.52;;;11.10;;
74898;SDS011;63458;48.210;16.338;2023-05-14T01:10:44;16.30;;;11.98;;
74898;SDS011;63458;48.210;16.338;2023-05-14T01:15:46;14.70;;;10.82;;
74898;SDS011;63458;48.210;16.338;2023-05-14T01:18:12;15.98;;;12.13;;
74898;SDS011;63458;48.210;16.338;2023-05-14T01:20:38;14.82;;;11.23;;
74898;SDS011;63458;48.210;16.338;2023-05-14T01:23:04;15.75;;;10.75;;
74898;SDS011;63458;48.210;16.338;2023-05-14T01:25:30;14.77;;;10.95;;
74898;SDS011;63458;48.210;16.338;2023-05-14T01:30:36;18.17;;;12.43;;
74898;SDS011;63458;48.210;16.338;2023-05-14T01:33:06;15.85;;;11.50;;
74898;SDS011;63458;48.210;16.338;2023-05-14T01:35:35;15.98;;;11.88;;
74898;SDS011;63458;48.210;16.338;2023-05-14T01:38:02;17.13;;;11.48;;
74898;SDS011;63458;48.210;16.338;2023-05-14T01:40:29;15.85;;;12.18;;
74898;SDS011;63458;48.210;16.338;2023-05-14T01:42:56;15.90;;;11.63;;
74898;SDS011;63458;48.210;16.338;2023-05-14T01:45:23;17.33;;;11.70;;
74898;SDS011;63458;48.210;16.338;2023-05-14T01:47:49;15.13;;;11.85;;
74898;SDS011;63458;48.210;16.338;2023-05-14T01:50:16;15.95;;;12.27;;
74898;SDS011;63458;48.210;16.338;2023-05-14T01:52:42;17.40;;;12.30;;
74898;SDS011;63458;48.210;16.338;2023-05-14T01:55:08;16.55;;;12.45;;
74898;SDS011;63458;48.210;16.338;2023-05-14T01:57:34;16.67;;;12.07;;
74898;SDS011;63458;48.210;16.338;2023-05-14T02:00:00;15.32;;;12.00;;
74898;SDS011;63458;48.210;16.338;2023-05-14T02:02:27;16.52;;;12.25;;
74898;SDS011;63458;48.210;16.338;2023-05-14T02:04:54;18.85;;;12.52;;
74898;SDS011;63458;48.210;16.338;2023-05-14T02:07:20;16.88;;;12.45;;
74898;SDS011;63458;48.210;16.338;2023-05-14T02:09:46;15.75;;;11.90;;
74898;SDS011;63458;48.210;16.338;2023-05-14T02:12:12;15.85;;;11.68;;
74898;SDS011;63458;48.210;16.338;2023-05-14T02:14:38;17.27;;;12.88;;
74898;SDS011;63458;48.210;16.338;2023-05-14T02:17:04;14.50;;;11.48;;
74898;SDS011;63458;48.210;16.338;2023-05-14T02:19:30;16.52;;;12.00;;
74898;SDS011;63458;48.210;16.338;2023-05-14T02:21:57;15.18;;;12.18;;
74898;SDS011;63458;48.210;16.338;2023-05-14T02:24:24;15.98;;;12.20;;
74898;SDS011;63458;48.210;16.338;2023-05-14T02:26:50;17.90;;;12.48;;
74898;SDS011;63458;48.210;16.338;2023-05-14T02:29:16;14.90;;;11.07;;
74898;SDS011;63458;48.210;16.338;2023-05-14T02:31:42;15.48;;;11.60;;
74898;SDS011;63458;48.210;16.338;2023-05-14T02:34:08;14.10;;;11.57;;
74898;SDS011;63458;48.210;16.338;2023-05-14T02:36:34;13.95;;;10.95;;
74898;SDS011;63458;48.210;16.338;2023-05-14T02:39:00;15.95;;;11.88;;
74898;SDS011;63458;48.210;16.338;2023-05-14T02:41:26;16.10;;;11.57;;
74898;SDS011;63458;48.210;16.338;2023-05-14T02:43:52;13.45;;;10.50;;
74898;SDS011;63458;48.210;16.338;2023-05-14T02:46:19;14.68;;;11.05;;
74898;SDS011;63458;48.210;16.338;2023-05-14T02:48:45;14.27;;;10.85;;
74898;SDS011;63458;48.210;16.338;2023-05-14T02:51:11;15.68;;;11.10;;
74898;SDS011;63458;48.210;16.338;2023-05-14T02:53:37;19.98;;;15.80;;
74898;SDS011;63458;48.210;16.338;2023-05-14T02:56:03;16.95;;;13.07;;
74898;SDS011;63458;48.210;16.338;2023-05-14T02:58:29;18.50;;;14.18;;
74898;SDS011;63458;48.210;16.338;2023-05-14T03:00:55;15.82;;;12.90;;
74898;SDS011;63458;48.210;16.338;2023-05-14T03:03:21;17.73;;;12.52;;
74898;SDS011;63458;48.210;16.338;2023-05-14T03:05:47;15.77;;;11.77;;
74898;SDS011;63458;48.210;16.338;2023-05-14T03:08:13;16.67;;;11.63;;
74898;SDS011;63458;48.210;16.338;2023-05-14T03:10:39;21.20;;;16.70;;
74898;SDS011;63458;48.210;16.338;2023-05-14T03:13:05;21.80;;;15.90;;
74898;SDS011;63458;48.210;16.338;2023-05-14T03:15:31;17.92;;;14.02;;
74898;SDS011;63458;48.210;16.338;2023-05-14T03:17:57;17.33;;;13.15;;
74898;SDS011;63458;48.210;16.338;2023-05-14T03:20:23;15.73;;;11.18;;
74898;SDS011;63458;48.210;16.338;2023-05-14T03:22:50;16.27;;;11.70;;
74898;SDS011;63458;48.210;16.338;2023-05-14T03:25:16;15.70;;;11.68;;
74898;SDS011;63458;48.210;16.338;2023-05-14T03:27:42;17.00;;;11.43;;
74898;SDS011;63458;48.210;16.338;2023-05-14T03:30:08;15.48;;;10.65;;
74898;SDS011;63458;48.210;16.338;2023-05-14T03:32:35;12.95;;;10.35;;
74898;SDS011;63458;48.210;16.338;2023-05-14T03:35:01;13.35;;;10.60;;
74898;SDS011;63458;48.210;16.338;2023-05-14T03:37:27;13.15;;;10.07;;
74898;SDS011;63458;48.210;16.338;2023-05-14T03:39:53;15.40;;;11.07;;
74898;SDS011;63458;48.210;16.338;2023-05-14T03:42:19;15.07;;;10.98;;
74898;SDS011;63458;48.210;16.338;2023-05-14T03:44:45;14.40;;;9.82;;
74898;SDS011;63458;48.210;16.338;2023-05-14T03:47:11;12.85;;;10.38;;
74898;SDS011;63458;48.210;16.338;2023-05-14T03:49:37;13.68;;;10.18;;
74898;SDS011;63458;48.210;16.338;2023-05-14T03:52:03;13.63;;;10.10;;
74898;SDS011;63458;48.210;16.338;2023-05-14T03:54:30;15.10;;;10.02;;
74898;SDS011;63458;48.210;16.338;2023-05-14T03:56:56;13.43;;;10.80;;
74898;SDS011;63458;48.210;16.338;2023-05-14T03:59:21;13.35;;;10.15;;
74898;SDS011;63458;48.210;16.338;2023-05-14T04:01:48;13.55;;;10.68;;
74898;SDS011;63458;48.210;16.338;2023-05-14T04:04:14;13.27;;;10.40;;
74898;SDS011;63458;48.210;16.338;2023-05-14T04:06:40;13.60;;;10.75;;
74898;SDS011;63458;48.210;16.338;2023-05-14T04:09:06;12.70;;;10.43;;
74898;SDS011;63458;48.210;16.338;2023-05-14T04:11:34;13.93;;;10.65;;
74898;SDS011;63458;48.210;16.338;2023-05-14T04:14:00;14.25;;;11.48;;
74898;SDS011;63458;48.210;16.338;2023-05-14T04:16:26;14.70;;;11.05;;
74898;SDS011;63458;48.210;16.338;2023-05-14T04:18:52;13.57;;;10.80;;
74898;SDS011;63458;48.210;16.338;2023-05-14T04:21:18;13.98;;;10.77;;
74898;SDS011;63458;48.210;16.338;2023-05-14T04:23:44;15.30;;;11.27;;
74898;SDS011;63458;48.210;16.338;2023-05-14T04:26:10;14.30;;;11.60;;
74898;SDS011;63458;48.210;16.338;2023-05-14T04:28:36;14.95;;;11.73;;
74898;SDS011;63458;48.210;16.338;2023-05-14T04:31:02;12.93;;;10.45;;
74898;SDS011;63458;48.210;16.338;2023-05-14T04:33:29;15.45;;;11.38;;
74898;SDS011;63458;48.210;16.338;2023-05-14T04:35:55;13.95;;;11.63;;
74898;SDS011;63458;48.210;16.338;2023-05-14T04:38:21;13.93;;;11.35;;
74898;SDS011;63458;48.210;16.338;2023-05-14T04:40:47;13.70;;;11.15;;
74898;SDS011;63458;48.210;16.338;2023-05-14T04:43:13;14.10;;;12.05;;
74898;SDS011;63458;48.210;16.338;2023-05-14T04:45:40;15.15;;;11.25;;
74898;SDS011;63458;48.210;16.338;2023-05-14T04:48:07;13.75;;;11.65;;
74898;SDS011;63458;48.210;16.338;2023-05-14T04:50:33;14.25;;;11.75;;
74898;SDS011;63458;48.210;16.338;2023-05-14T04:52:59;13.60;;;11.25;;
74898;SDS011;63458;48.210;16.338;2023-05-14T04:55:25;13.13;;;9.82;;
74898;SDS011;63458;48.210;16.338;2023-05-14T04:57:51;12.73;;;10.52;;
74898;SDS011;63458;48.210;16.338;2023-05-14T05:00:17;14.40;;;11.27;;
74898;SDS011;63458;48.210;16.338;2023-05-14T05:07:37;13.07;;;9.95;;
74898;SDS011;63458;48.210;16.338;2023-05-14T05:10:03;13.55;;;9.07;;
74898;SDS011;63458;48.210;16.338;2023-05-14T05:12:29;13.40;;;9.00;;
74898;SDS011;63458;48.210;16.338;2023-05-14T05:14:56;12.60;;;9.05;;
74898;SDS011;63458;48.210;16.338;2023-05-14T05:17:22;12.68;;;9.40;;
74898;SDS011;63458;48.210;16.338;2023-05-14T05:19:48;15.07;;;10.77;;
74898;SDS011;63458;48.210;16.338;2023-05-14T05:22:14;13.40;;;9.52;;
74898;SDS011;63458;48.210;16.338;2023-05-14T05:24:40;12.38;;;8.85;;
74898;SDS011;63458;48.210;16.338;2023-05-14T05:27:06;11.63;;;8.77;;
74898;SDS011;63458;48.210;16.338;2023-05-14T05:29:33;11.38;;;8.27;;
74898;SDS011;63458;48.210;16.338;2023-05-14T05:31:59;12.35;;;9.07;;
74898;SDS011;63458;48.210;16.338;2023-05-14T05:34:25;11.18;;;8.35;;
74898;SDS011;63458;48.210;16.338;2023-05-14T05:36:51;11.68;;;8.82;;
74898;SDS011;63458;48.210;16.338;2023-05-14T05:39:17;14.70;;;8.25;;
74898;SDS011;63458;48.210;16.338;2023-05-14T05:41:43;12.63;;;8.25;;
74898;SDS011;63458;48.210;16.338;2023-05-14T05:44:09;13.80;;;9.15;;
74898;SDS011;63458;48.210;16.338;2023-05-14T05:46:35;11.32;;;7.82;;
74898;SDS011;63458;48.210;16.338;2023-05-14T05:49:01;11.93;;;8.02;;
74898;SDS011;63458;48.210;16.338;2023-05-14T05:51:27;12.13;;;8.27;;
74898;SDS011;63458;48.210;16.338;2023-05-14T05:53:54;11.02;;;8.10;;
74898;SDS011;63458;48.210;16.338;2023-05-14T05:56:20;11.15;;;8.35;;
74898;SDS011;63458;48.210;16.338;2023-05-14T05:58:46;11.07;;;7.63;;
74898;SDS011;63458;48.210;16.338;2023-05-14T06:01:12;12.88;;;8.40;;
74898;SDS011;63458;48.210;16.338;2023-05-14T06:03:38;15.82;;;8.85;;
74898;SDS011;63458;48.210;16.338;2023-05-14T06:06:04;12.55;;;7.70;;
74898;SDS011;63458;48.210;16.338;2023-05-14T06:08:30;12.05;;;7.97;;
74898;SDS011;63458;48.210;16.338;2023-05-14T06:10:56;12.68;;;8.27;;
74898;SDS011;63458;48.210;16.338;2023-05-14T06:13:22;11.68;;;7.82;;
74898;SDS011;63458;48.210;16.338;2023-05-14T06:15:48;10.55;;;7.70;;
74898;SDS011;63458;48.210;16.338;2023-05-14T06:18:14;10.65;;;7.80;;
74898;SDS011;63458;48.210;16.338;2023-05-14T06:20:40;10.57;;;8.02;;
74898;SDS011;63458;48.210;16.338;2023-05-14T06:23:07;12.23;;;7.53;;
74898;SDS011;63458;48.210;16.338;2023-05-14T06:25:33;13.00;;;8.32;;
74898;SDS011;63458;48.210;16.338;2023-05-14T06:27:59;12.25;;;7.78;;
74898;SDS011;63458;48.210;16.338;2023-05-14T06:30:25;12.05;;;7.13;;
74898;SDS011;63458;48.210;16.338;2023-05-14T06:32:51;11.95;;;7.47;;
74898;SDS011;63458;48.210;16.338;2023-05-14T06:35:17;10.55;;;7.10;;
74898;SDS011;63458;48.210;16.338;2023-05-14T06:37:43;11.95;;;7.90;;
74898;SDS011;63458;48.210;16.338;2023-05-14T06:40:10;14.25;;;7.55;;
74898;SDS011;63458;48.210;16.338;2023-05-14T06:42:36;12.68;;;7.68;;
74898;SDS011;63458;48.210;16.338;2023-05-14T06:45:02;11.52;;;7.60;;
74898;SDS011;63458;48.210;16.338;2023-05-14T06:47:29;12.02;;;7.82;;
74898;SDS011;63458;48.210;16.338;2023-05-14T06:49:55;11.88;;;8.32;;
74898;SDS011;63458;48.210;16.338;2023-05-14T06:52:22;10.60;;;7.15;;
74898;SDS011;63458;48.210;16.338;2023-05-14T06:54:48;10.43;;;7.78;;
74898;SDS011;63458;48.210;16.338;2023-05-14T06:57:14;12.75;;;8.35;;
74898;SDS011;63458;48.210;16.338;2023-05-14T06:59:40;13.98;;;8.95;;
74898;SDS011;63458;48.210;16.338;2023-05-14T07:02:06;11.35;;;8.13;;
74898;SDS011;63458;48.210;16.338;2023-05-14T07:04:32;16.70;;;11.63;;
74898;SDS011;63458;48.210;16.338;2023-05-14T07:06:58;12.30;;;8.60;;
74898;SDS011;63458;48.210;16.338;2023-05-14T07:09:24;13.02;;;9.00;;
74898;SDS011;63458;48.210;16.338;2023-05-14T07:11:50;13.07;;;10.25;;
74898;SDS011;63458;48.210;16.338;2023-05-14T07:14:16;11.10;;;8.00;;
74898;SDS011;63458;48.210;16.338;2023-05-14T07:16:42;11.30;;;8.68;;
74898;SDS011;63458;48.210;16.338;2023-05-14T07:19:10;12.82;;;8.15;;
74898;SDS011;63458;48.210;16.338;2023-05-14T07:21:36;11.77;;;8.30;;
74898;SDS011;63458;48.210;16.338;2023-05-14T07:24:03;13.07;;;8.52;;
74898;SDS011;63458;48.210;16.338;2023-05-14T07:26:29;11.40;;;8.18;;
74898;SDS011;63458;48.210;16.338;2023-05-14T07:28:55;12.43;;;8.50;;
74898;SDS011;63458;48.210;16.338;2023-05-14T07:31:21;12.23;;;9.10;;
74898;SDS011;63458;48.210;16.338;2023-05-14T07:33:47;11.20;;;8.23;;
74898;SDS011;63458;48.210;16.338;2023-05-14T07:36:13;11.05;;;7.70;;
74898;SDS011;63458;48.210;16.338;2023-05-14T07:38:39;12.30;;;8.77;;
74898;SDS011;63458;48.210;16.338;2023-05-14T07:41:05;10.60;;;8.43;;
74898;SDS011;63458;48.210;16.338;2023-05-14T07:43:31;12.13;;;7.72;;
74898;SDS011;63458;48.210;16.338;2023-05-14T07:45:57;12.20;;;7.93;;
74898;SDS011;63458;48.210;16.338;2023-05-14T07:48:23;12.20;;;8.18;;
74898;SDS011;63458;48.210;16.338;2023-05-14T07:50:50;10.68;;;7.78;;
74898;SDS011;63458;48.210;16.338;2023-05-14T07:53:16;11.43;;;7.22;;
74898;SDS011;63458;48.210;16.338;2023-05-14T07:55:43;10.25;;;6.90;;
74898;SDS011;63458;48.210;16.338;2023-05-14T07:58:12;10.07;;;6.53;;
74898;SDS011;63458;48.210;16.338;2023-05-14T08:00:38;9.95;;;6.65;;
74898;SDS011;63458;48.210;16.338;2023-05-14T08:03:04;10.27;;;7.07;;
74898;SDS011;63458;48.210;16.338;2023-05-14T08:05:30;11.80;;;6.60;;
74898;SDS011;63458;48.210;16.338;2023-05-14T08:07:56;9.70;;;6.93;;
74898;SDS011;63458;48.210;16.338;2023-05-14T08:10:23;11.40;;;6.65;;
74898;SDS011;63458;48.210;16.338;2023-05-14T08:12:49;10.45;;;6.55;;
74898;SDS011;63458;48.210;16.338;2023-05-14T08:15:15;9.85;;;6.13;;
74898;SDS011;63458;48.210;16.338;2023-05-14T08:17:41;12.95;;;6.05;;
74898;SDS011;63458;48.210;16.338;2023-05-14T08:20:07;10.02;;;7.03;;
74898;SDS011;63458;48.210;16.338;2023-05-14T08:22:34;10.13;;;6.43;;
74898;SDS011;63458;48.210;16.338;2023-05-14T08:25:00;9.73;;;6.60;;
74898;SDS011;63458;48.210;16.338;2023-05-14T08:27:27;11.18;;;6.03;;
74898;SDS011;63458;48.210;16.338;2023-05-14T08:29:53;10.98;;;7.40;;
74898;SDS011;63458;48.210;16.338;2023-05-14T08:32:19;9.68;;;6.50;;
74898;SDS011;63458;48.210;16.338;2023-05-14T08:34:45;10.27;;;6.55;;
74898;SDS011;63458;48.210;16.338;2023-05-14T08:37:11;9.93;;;6.63;;
74898;SDS011;63458;48.210;16.338;2023-05-14T08:39:37;10.23;;;7.00;;
74898;SDS011;63458;48.210;16.338;2023-05-14T08:42:04;10.73;;;6.50;;
74898;SDS011;63458;48.210;16.338;2023-05-14T08:44:33;9.82;;;6.10;;
74898;SDS011;63458;48.210;16.338;2023-05-14T08:47:01;8.90;;;6.05;;
74898;SDS011;63458;48.210;16.338;2023-05-14T08:49:40;9.55;;;6.85;;
74898;SDS011;63458;48.210;16.338;2023-05-14T08:52:07;8.30;;;5.57;;
74898;SDS011;63458;48.210;16.338;2023-05-14T08:54:34;8.35;;;5.10;;
74898;SDS011;63458;48.210;16.338;2023-05-14T08:57:00;9.25;;;6.03;;
74898;SDS011;63458;48.210;16.338;2023-05-14T08:59:27;9.98;;;5.95;;
74898;SDS011;63458;48.210;16.338;2023-05-14T09:01:53;8.70;;;5.20;;
74898;SDS011;63458;48.210;16.338;2023-05-14T09:04:21;8.45;;;5.32;;
74898;SDS011;63458;48.210;16.338;2023-05-14T09:06:48;8.45;;;5.22;;
74898;SDS011;63458;48.210;16.338;2023-05-14T09:09:15;7.88;;;5.05;;
74898;SDS011;63458;48.210;16.338;2023-05-14T09:11:41;9.30;;;5.30;;
74898;SDS011;63458;48.210;16.338;2023-05-14T09:14:08;8.25;;;5.22;;
74898;SDS011;63458;48.210;16.338;2023-05-14T09:16:34;9.60;;;5.65;;
74898;SDS011;63458;48.210;16.338;2023-05-14T09:19:02;8.77;;;5.40;;
74898;SDS011;63458;48.210;16.338;2023-05-14T09:21:28;8.90;;;5.25;;
74898;SDS011;63458;48.210;16.338;2023-05-14T09:23:55;7.93;;;5.43;;
74898;SDS011;63458;48.210;16.338;2023-05-14T09:26:23;8.30;;;5.28;;
74898;SDS011;63458;48.210;16.338;2023-05-14T09:28:52;8.85;;;5.63;;
74898;SDS011;63458;48.210;16.338;2023-05-14T09:31:19;7.90;;;5.28;;
74898;SDS011;63458;48.210;16.338;2023-05-14T09:33:49;8.98;;;5.68;;
74898;SDS011;63458;48.210;16.338;2023-05-14T09:36:16;8.00;;;5.20;;
74898;SDS011;63458;48.210;16.338;2023-05-14T09:38:42;8.65;;;5.57;;
74898;SDS011;63458;48.210;16.338;2023-05-14T09:41:08;9.05;;;5.82;;
74898;SDS011;63458;48.210;16.338;2023-05-14T09:43:34;9.02;;;5.32;;
74898;SDS011;63458;48.210;16.338;2023-05-14T09:46:00;8.90;;;5.03;;
74898;SDS011;63458;48.210;16.338;2023-05-14T09:48:26;9.23;;;5.25;;
74898;SDS011;63458;48.210;16.338;2023-05-14T09:50:53;9.43;;;5.53;;
74898;SDS011;63458;48.210;16.338;2023-05-14T09:53:19;8.38;;;4.97;;
74898;SDS011;63458;48.210;16.338;2023-05-14T09:55:45;9.30;;;6.00;;
74898;SDS011;63458;48.210;16.338;2023-05-14T09:58:11;8.07;;;5.07;;
74898;SDS011;63458;48.210;16.338;2023-05-14T10:00:43;8.35;;;5.47;;
74898;SDS011;63458;48.210;16.338;2023-05-14T10:03:10;9.88;;;5.47;;
74898;SDS011;63458;48.210;16.338;2023-05-14T10:05:37;8.48;;;5.47;;
74898;SDS011;63458;48.210;16.338;2023-05-14T10:08:04;11.15;;;7.13;;
74898;SDS011;63458;48.210;16.338;2023-05-14T10:10:32;9.32;;;5.38;;
74898;SDS011;63458;48.210;16.338;2023-05-14T10:13:01;8.18;;;5.45;;
74898;SDS011;63458;48.210;16.338;2023-05-14T10:15:42;8.82;;;5.53;;
74898;SDS011;63458;48.210;16.338;2023-05-14T10:18:09;9.55;;;5.40;;
74898;SDS011;63458;48.210;16.338;2023-05-14T10:20:35;9.45;;;6.03;;
74898;SDS011;63458;48.210;16.338;2023-05-14T10:23:02;8.93;;;5.68;;
74898;SDS011;63458;48.210;16.338;2023-05-14T10:25:28;9.02;;;5.53;;
74898;SDS011;63458;48.210;16.338;2023-05-14T10:27:55;8.07;;;5.13;;
74898;SDS011;63458;48.210;16.338;2023-05-14T10:30:21;7.90;;;5.43;;
74898;SDS011;63458;48.210;16.338;2023-05-14T10:32:47;10.55;;;5.60;;
74898;SDS011;63458;48.210;16.338;2023-05-14T10:35:14;8.25;;;5.30;;
74898;SDS011;63458;48.210;16.338;2023-05-14T10:37:41;9.13;;;5.50;;
74898;SDS011;63458;48.210;16.338;2023-05-14T10:40:09;8.10;;;5.13;;
74898;SDS011;63458;48.210;16.338;2023-05-14T10:42:37;8.75;;;5.28;;
74898;SDS011;63458;48.210;16.338;2023-05-14T10:45:08;8.18;;;5.13;;
74898;SDS011;63458;48.210;16.338;2023-05-14T10:47:35;7.53;;;4.68;;
74898;SDS011;63458;48.210;16.338;2023-05-14T10:50:02;11.65;;;6.05;;
74898;SDS011;63458;48.210;16.338;2023-05-14T10:52:28;10.40;;;6.60;;
74898;SDS011;63458;48.210;16.338;2023-05-14T10:54:55;8.43;;;5.22;;
74898;SDS011;63458;48.210;16.338;2023-05-14T10:57:23;9.57;;;5.38;;
74898;SDS011;63458;48.210;16.338;2023-05-14T10:59:57;9.07;;;6.40;;
74898;SDS011;63458;48.210;16.338;2023-05-14T11:02:24;9.00;;;5.57;;
74898;SDS011;63458;48.210;16.338;2023-05-14T11:05:12;9.80;;;5.88;;
74898;SDS011;63458;48.210;16.338;2023-05-14T11:07:40;9.23;;;6.00;;
74898;SDS011;63458;48.210;16.338;2023-05-14T11:10:10;8.48;;;5.95;;
74898;SDS011;63458;48.210;16.338;2023-05-14T11:12:38;9.70;;;5.60;;
74898;SDS011;63458;48.210;16.338;2023-05-14T11:15:05;9.40;;;5.32;;
74898;SDS011;63458;48.210;16.338;2023-05-14T11:17:33;9.05;;;6.22;;
74898;SDS011;63458;48.210;16.338;2023-05-14T11:19:59;9.60;;;6.65;;
74898;SDS011;63458;48.210;16.338;2023-05-14T11:22:25;10.10;;;5.82;;
74898;SDS011;63458;48.210;16.338;2023-05-14T11:24:51;9.52;;;6.55;;
74898;SDS011;63458;48.210;16.338;2023-05-14T11:27:18;10.88;;;6.63;;
74898;SDS011;63458;48.210;16.338;2023-05-14T11:29:45;9.35;;;5.95;;
74898;SDS011;63458;48.210;16.338;2023-05-14T11:32:12;10.52;;;6.43;;
74898;SDS011;63458;48.210;16.338;2023-05-14T11:34:39;10.25;;;6.50;;
74898;SDS011;63458;48.210;16.338;2023-05-14T11:37:06;9.57;;;6.43;;
74898;SDS011;63458;48.210;16.338;2023-05-14T11:39:32;10.07;;;6.07;;
74898;SDS011;63458;48.210;16.338;2023-05-14T11:44:25;8.98;;;6.10;;
74898;SDS011;63458;48.210;16.338;2023-05-14T11:46:55;9.38;;;6.70;;
74898;SDS011;63458;48.210;16.338;2023-05-14T11:49:22;9.20;;;6.80;;
74898;SDS011;63458;48.210;16.338;2023-05-14T11:51:48;8.68;;;5.80;;
74898;SDS011;63458;48.210;16.338;2023-05-14T11:54:14;8.43;;;5.25;;
74898;SDS011;63458;48.210;16.338;2023-05-14T11:56:40;7.97;;;5.35;;
74898;SDS011;63458;48.210;16.338;2023-05-14T11:59:06;8.60;;;6.13;;
74898;SDS011;63458;48.210;16.338;2023-05-14T12:01:36;10.27;;;6.45;;
74898;SDS011;63458;48.210;16.338;2023-05-14T12:04:03;9.48;;;5.88;;
74898;SDS011;63458;48.210;16.338;2023-05-14T12:06:30;7.93;;;5.45;;
74898;SDS011;63458;48.210;16.338;2023-05-14T12:08:56;9.15;;;6.57;;
74898;SDS011;63458;48.210;16.338;2023-05-14T12:11:22;11.40;;;6.63;;
74898;SDS011;63458;48.210;16.338;2023-05-14T12:13:48;10.00;;;6.82;;
74898;SDS011;63458;48.210;16.338;2023-05-14T12:16:15;12.75;;;8.85;;
74898;SDS011;63458;48.210;16.338;2023-05-14T12:18:42;12.73;;;10.00;;
74898;SDS011;63458;48.210;16.338;2023-05-14T12:21:08;11.45;;;8.27;;
74898;SDS011;63458;48.210;16.338;2023-05-14T12:23:35;12.30;;;9.23;;
74898;SDS011;63458;48.210;16.338;2023-05-14T12:26:07;11.68;;;8.45;;
74898;SDS011;63458;48.210;16.338;2023-05-14T12:28:34;11.95;;;8.98;;
74898;SDS011;63458;48.210;16.338;2023-05-14T12:31:00;18.92;;;13.88;;
74898;SDS011;63458;48.210;16.338;2023-05-14T12:33:26;11.45;;;7.68;;
74898;SDS011;63458;48.210;16.338;2023-05-14T12:35:53;10.40;;;6.72;;
74898;SDS011;63458;48.210;16.338;2023-05-14T12:38:25;10.80;;;7.10;;
74898;SDS011;63458;48.210;16.338;2023-05-14T12:40:51;10.18;;;7.70;;
74898;SDS011;63458;48.210;16.338;2023-05-14T12:43:17;9.30;;;6.82;;
74898;SDS011;63458;48.210;16.338;2023-05-14T12:45:43;9.95;;;6.63;;
74898;SDS011;63458;48.210;16.338;2023-05-14T12:48:09;10.02;;;6.57;;
74898;SDS011;63458;48.210;16.338;2023-05-14T12:50:37;10.73;;;6.78;;
74898;SDS011;63458;48.210;16.338;2023-05-14T12:53:03;8.90;;;5.95;;
74898;SDS011;63458;48.210;16.338;2023-05-14T12:55:29;8.88;;;5.95;;
74898;SDS011;63458;48.210;16.338;2023-05-14T12:57:55;9.00;;;6.38;;
74898;SDS011;63458;48.210;16.338;2023-05-14T13:00:21;8.32;;;5.88;;
74898;SDS011;63458;48.210;16.338;2023-05-14T13:02:47;9.02;;;6.18;;
74898;SDS011;63458;48.210;16.338;2023-05-14T13:05:14;8.95;;;5.93;;
74898;SDS011;63458;48.210;16.338;2023-05-14T13:07:40;9.45;;;6.68;;
74898;SDS011;63458;48.210;16.338;2023-05-14T13:10:06;11.80;;;7.03;;
74898;SDS011;63458;48.210;16.338;2023-05-14T13:12:32;10.10;;;6.55;;
74898;SDS011;63458;48.210;16.338;2023-05-14T13:14:58;8.73;;;5.82;;
74898;SDS011;63458;48.210;16.338;2023-05-14T13:17:24;10.75;;;7.13;;
74898;SDS011;63458;48.210;16.338;2023-05-14T13:19:51;9.13;;;5.97;;
74898;SDS011;63458;48.210;16.338;2023-05-14T13:22:17;8.75;;;5.78;;
74898;SDS011;63458;48.210;16.338;2023-05-14T13:24:43;13.32;;;8.98;;
74898;SDS011;63458;48.210;16.338;2023-05-14T13:27:09;12.88;;;8.45;;
74898;SDS011;63458;48.210;16.338;2023-05-14T13:29:36;12.95;;;9.48;;
74898;SDS011;63458;48.210;16.338;2023-05-14T13:32:02;13.55;;;9.07;;
74898;SDS011;63458;48.210;16.338;2023-05-14T13:34:28;10.40;;;8.00;;
74898;SDS011;63458;48.210;16.338;2023-05-14T13:36:54;11.90;;;8.02;;
74898;SDS011;63458;48.210;16.338;2023-05-14T13:39:20;11.85;;;8.55;;
74898;SDS011;63458;48.210;16.338;2023-05-14T13:41:50;10.82;;;8.05;;
74898;SDS011;63458;48.210;16.338;2023-05-14T13:44:16;12.57;;;9.02;;
74898;SDS011;63458;48.210;16.338;2023-05-14T13:46:42;13.35;;;10.20;;
74898;SDS011;63458;48.210;16.338;2023-05-14T13:49:08;13.90;;;9.38;;
74898;SDS011;63458;48.210;16.338;2023-05-14T13:51:35;14.98;;;9.23;;
74898;SDS011;63458;48.210;16.338;2023-05-14T13:54:01;12.68;;;9.18;;
74898;SDS011;63458;48.210;16.338;2023-05-14T13:56:27;11.43;;;8.38;;
74898;SDS011;63458;48.210;16.338;2023-05-14T13:58:53;13.02;;;9.43;;
74898;SDS011;63458;48.210;16.338;2023-05-14T14:01:19;13.65;;;9.77;;
74898;SDS011;63458;48.210;16.338;2023-05-14T14:03:47;12.85;;;9.50;;
74898;SDS011;63458;48.210;16.338;2023-05-14T14:06:13;12.43;;;8.70;;
74898;SDS011;63458;48.210;16.338;2023-05-14T14:08:39;11.60;;;8.48;;
74898;SDS011;63458;48.210;16.338;2023-05-14T14:11:05;11.88;;;7.90;;
74898;SDS011;63458;48.210;16.338;2023-05-14T14:13:31;12.55;;;8.50;;
74898;SDS011;63458;48.210;16.338;2023-05-14T14:15:57;11.30;;;7.95;;
74898;SDS011;63458;48.210;16.338;2023-05-14T14:18:23;10.77;;;7.85;;
74898;SDS011;63458;48.210;16.338;2023-05-14T14:20:49;13.20;;;9.27;;
74898;SDS011;63458;48.210;16.338;2023-05-14T14:23:16;11.10;;;7.90;;
74898;SDS011;63458;48.210;16.338;2023-05-14T14:25:42;11.00;;;8.85;;
74898;SDS011;63458;48.210;16.338;2023-05-14T14:28:08;12.30;;;8.85;;
74898;SDS011;63458;48.210;16.338;2023-05-14T14:30:34;13.32;;;8.98;;
74898;SDS011;63458;48.210;16.338;2023-05-14T14:33:00;11.30;;;7.95;;